createdAt,value
2022-09-11T00:02:12.664Z,26.85
2022-09-11T00:04:43.460Z,26.83
2022-09-11T00:07:14.193Z,26.83
2022-09-11T00:09:45.137Z,26.82
2022-09-11T00:12:15.801Z,26.81
2022-09-11T00:14:46.530Z,26.79
2022-09-11T00:17:17.335Z,26.77
2022-09-11T00:19:47.971Z,26.75
2022-09-11T00:22:18.608Z,26.74
2022-09-11T00:24:50.269Z,26.74
2022-09-11T00:27:21.019Z,26.72
2022-09-11T00:29:52.154Z,26.72
2022-09-11T00:32:24.031Z,26.72
2022-09-11T00:34:54.722Z,26.72
2022-09-11T00:37:25.606Z,26.69
2022-09-11T00:39:56.333Z,26.60
2022-09-11T00:42:27.300Z,26.48
2022-09-11T00:45:04.034Z,26.36
2022-09-11T00:47:35.505Z,26.26
2022-09-11T00:50:13.401Z,26.17
2022-09-11T00:52:53.130Z,26.08
2022-09-11T00:55:28.589Z,26.00
2022-09-11T00:58:02.187Z,25.93
2022-09-11T01:00:33.420Z,25.84
2022-09-11T01:03:04.498Z,25.78
2022-09-11T01:05:37.038Z,25.72
2022-09-11T01:08:10.454Z,25.66
2022-09-11T01:10:51.214Z,25.60
2022-09-11T01:13:33.092Z,25.56
2022-09-11T01:16:14.021Z,25.51
2022-09-11T01:18:53.184Z,25.46
2022-09-11T01:21:52.627Z,25.43
2022-09-11T01:24:41.987Z,25.37
2022-09-11T01:27:43.518Z,25.31
2022-09-11T01:30:17.484Z,25.24
2022-09-11T01:33:13.128Z,25.18
2022-09-11T01:35:56.656Z,25.15
2022-09-11T01:38:34.689Z,25.12
2022-09-11T01:41:10.507Z,25.08
2022-09-11T01:43:47.874Z,25.05
2022-09-11T01:46:23.171Z,25.03
2022-09-11T01:49:00.470Z,25.01
2022-09-11T01:51:36.292Z,24.99
2022-09-11T01:54:11.961Z,24.98
2022-09-11T01:56:46.620Z,24.94
2022-09-11T01:59:21.677Z,24.85
2022-09-11T02:01:55.932Z,24.87
2022-09-11T02:04:31.340Z,24.84
2022-09-11T02:07:08.876Z,24.85
2022-09-11T02:09:44.842Z,24.81
2022-09-11T02:12:20.075Z,24.79
2022-09-11T02:14:53.276Z,24.77
2022-09-11T02:17:32.138Z,24.75
2022-09-11T02:20:03.867Z,24.73
2022-09-11T02:22:34.596Z,24.71
2022-09-11T02:25:05.850Z,24.70
2022-09-11T02:27:37.297Z,24.70
2022-09-11T02:30:10.764Z,24.70
2022-09-11T02:32:41.123Z,24.70
2022-09-11T02:35:13.376Z,24.67
2022-09-11T02:37:56.141Z,24.67
2022-09-11T02:40:47.723Z,24.68
2022-09-11T02:43:47.879Z,24.67
2022-09-11T02:46:44.410Z,24.65
2022-09-11T02:49:24.935Z,24.64
2022-09-11T02:52:04.049Z,24.65
2022-09-11T02:54:42.021Z,24.64
2022-09-11T02:57:19.923Z,24.61
2022-09-11T02:59:56.836Z,24.57
2022-09-11T03:02:30.589Z,24.56
2022-09-11T03:05:01.566Z,24.56
2022-09-11T03:07:33.347Z,24.55
2022-09-11T03:10:04.084Z,24.54
2022-09-11T03:12:36.286Z,24.51
2022-09-11T03:15:09.697Z,24.47
2022-09-11T03:17:40.432Z,24.49
2022-09-11T03:20:12.125Z,24.47
2022-09-11T03:22:42.801Z,24.47
2022-09-11T03:25:15.164Z,24.46
2022-09-11T03:27:45.873Z,24.45
2022-09-11T03:30:17.216Z,24.45
2022-09-11T03:32:48.299Z,24.46
2022-09-11T03:35:19.244Z,24.45
2022-09-11T03:37:50.594Z,24.42
2022-09-11T03:40:21.509Z,24.41
2022-09-11T03:42:53.107Z,24.40
2022-09-11T03:45:24.071Z,24.33
2022-09-11T03:47:55.080Z,24.34
2022-09-11T03:50:26.660Z,24.33
2022-09-11T03:52:57.282Z,24.29
2022-09-11T03:55:28.680Z,24.30
2022-09-11T03:57:59.399Z,24.30
2022-09-11T04:00:30.309Z,24.27
2022-09-11T04:03:02.144Z,24.27
2022-09-11T04:05:32.878Z,24.28
2022-09-11T04:08:04.129Z,24.29
2022-09-11T04:10:36.373Z,24.27
2022-09-11T04:13:07.373Z,24.27
2022-09-11T04:15:38.109Z,24.25
2022-09-11T04:18:10.704Z,24.24
2022-09-11T04:20:42.633Z,24.25
2022-09-11T04:23:14.372Z,24.25
2022-09-11T04:25:45.055Z,24.26
2022-09-11T04:28:15.997Z,24.25
2022-09-11T04:30:46.737Z,24.23
2022-09-11T04:33:17.415Z,24.24
2022-09-11T04:35:48.317Z,24.22
2022-09-11T04:38:19.769Z,24.22
2022-09-11T04:40:50.437Z,24.20
2022-09-11T04:43:21.145Z,24.19
2022-09-11T04:45:52.135Z,24.15
2022-09-11T04:48:22.907Z,24.12
2022-09-11T04:51:02.433Z,24.09
2022-09-11T04:53:34.071Z,24.06
2022-09-11T04:56:12.387Z,24.05
2022-09-11T04:58:43.875Z,24.04
2022-09-11T05:01:17.650Z,24.03
2022-09-11T05:03:48.534Z,24.04
2022-09-11T05:06:19.758Z,24.04
2022-09-11T05:08:50.911Z,24.03
2022-09-11T05:11:22.256Z,24.02
2022-09-11T05:13:54.252Z,24.02
2022-09-11T05:16:25.114Z,23.98
2022-09-11T05:18:56.863Z,24.01
2022-09-11T05:21:29.221Z,24.01
2022-09-11T05:24:01.780Z,24.00
2022-09-11T05:26:34.881Z,24.02
2022-09-11T05:29:07.478Z,24.02
2022-09-11T05:31:38.333Z,24.02
2022-09-11T05:34:09.686Z,24.03
2022-09-11T05:36:41.556Z,24.03
2022-09-11T05:39:12.274Z,24.04
2022-09-11T05:41:43.210Z,24.05
2022-09-11T05:44:13.900Z,24.07
2022-09-11T05:46:46.256Z,24.07
2022-09-11T05:49:17.783Z,24.08
2022-09-11T05:51:48.742Z,24.08
2022-09-11T05:54:19.466Z,24.09
2022-09-11T05:56:50.308Z,24.08
2022-09-11T05:59:21.465Z,24.09
2022-09-11T06:01:52.164Z,24.10
2022-09-11T06:04:23.443Z,24.12
2022-09-11T06:06:54.183Z,24.15
2022-09-11T06:09:24.925Z,24.18
2022-09-11T06:11:55.613Z,24.22
2022-09-11T06:14:26.366Z,24.26
2022-09-11T06:16:57.373Z,24.29
2022-09-11T06:19:28.265Z,24.31
2022-09-11T06:21:58.903Z,24.33
2022-09-11T06:24:29.787Z,24.37
2022-09-11T06:27:00.930Z,24.40
2022-09-11T06:29:32.730Z,24.44
2022-09-11T06:32:04.055Z,24.47
2022-09-11T06:34:34.754Z,24.49
2022-09-11T06:37:05.675Z,24.52
2022-09-11T06:39:36.440Z,24.54
2022-09-11T06:42:08.269Z,24.56
2022-09-11T06:44:38.952Z,24.59
2022-09-11T06:47:09.875Z,24.62
2022-09-11T06:49:40.640Z,24.65
2022-09-11T06:52:11.348Z,24.67
2022-09-11T06:54:42.087Z,24.70
2022-09-11T06:57:12.827Z,24.70
2022-09-11T06:59:45.082Z,24.77
2022-09-11T07:02:15.930Z,24.85
2022-09-11T07:04:47.547Z,24.91
2022-09-11T07:07:18.451Z,24.94
2022-09-11T07:09:49.285Z,24.98
2022-09-11T07:12:24.034Z,25.02
2022-09-11T07:14:54.852Z,25.05
2022-09-11T07:17:25.804Z,25.08
2022-09-11T07:19:56.794Z,25.10
2022-09-11T07:22:28.097Z,25.14
2022-09-11T07:25:01.397Z,25.18
2022-09-11T07:27:33.758Z,25.21
2022-09-11T07:30:04.733Z,25.20
2022-09-11T07:32:35.645Z,25.25
2022-09-11T07:35:07.836Z,25.29
2022-09-11T07:37:38.761Z,25.33
2022-09-11T07:40:10.992Z,25.36
2022-09-11T07:42:42.243Z,25.38
2022-09-11T07:45:13.851Z,25.42
2022-09-11T07:47:44.514Z,25.44
2022-09-11T07:50:15.953Z,25.45
2022-09-11T07:52:46.728Z,25.47
2022-09-11T07:55:18.707Z,25.52
2022-09-11T07:57:50.631Z,25.48
2022-09-11T08:00:21.815Z,25.42
2022-09-11T08:02:53.204Z,25.42
2022-09-11T08:05:23.933Z,25.41
2022-09-11T08:07:54.639Z,25.42
2022-09-11T08:10:27.553Z,25.42
2022-09-11T08:13:00.217Z,25.42
2022-09-11T08:15:31.288Z,25.42
2022-09-11T08:18:02.234Z,25.40
2022-09-11T08:20:33.808Z,25.40
2022-09-11T08:23:04.630Z,25.41
2022-09-11T08:25:38.440Z,25.43
2022-09-11T08:28:09.607Z,25.44
2022-09-11T08:30:40.336Z,25.42
2022-09-11T08:33:13.523Z,25.46
2022-09-11T08:35:45.522Z,25.46
2022-09-11T08:38:16.222Z,25.47
2022-09-11T08:40:48.775Z,25.51
2022-09-11T08:43:24.712Z,25.53
2022-09-11T08:46:05.035Z,25.56
2022-09-11T08:48:44.558Z,25.58
2022-09-11T08:51:18.716Z,25.60
2022-09-11T08:53:49.921Z,25.61
2022-09-11T08:56:22.770Z,25.63
2022-09-11T08:59:12.381Z,25.65
2022-09-11T09:01:51.432Z,25.68
2022-09-11T09:04:42.197Z,25.70
2022-09-11T09:07:23.066Z,25.73
2022-09-11T09:10:04.300Z,25.75
2022-09-11T09:12:45.625Z,25.76
2022-09-11T09:15:29.483Z,25.77
2022-09-11T09:18:05.723Z,25.80
2022-09-11T09:20:39.891Z,25.82
2022-09-11T09:23:20.134Z,25.83
2022-09-11T09:25:53.216Z,25.82
2022-09-11T09:28:26.262Z,25.83
2022-09-11T09:30:59.518Z,25.87
2022-09-11T09:33:34.641Z,25.90
2022-09-11T09:36:17.484Z,25.93
2022-09-11T09:38:49.027Z,25.94
2022-09-11T09:41:54.011Z,25.98
2022-09-11T09:44:39.273Z,25.98
2022-09-11T09:47:14.566Z,26.00
2022-09-11T09:49:46.322Z,26.03
2022-09-11T09:52:20.480Z,26.03
2022-09-11T09:54:58.480Z,26.07
2022-09-11T09:57:33.427Z,26.08
2022-09-11T10:00:07.662Z,26.10
2022-09-11T10:02:42.247Z,26.11
2022-09-11T10:05:29.304Z,26.12
2022-09-11T10:08:03.181Z,26.12
2022-09-11T10:10:36.489Z,26.16
2022-09-11T10:13:25.119Z,26.19
2022-09-11T10:15:57.286Z,26.21
2022-09-11T10:18:40.165Z,26.21
2022-09-11T10:21:29.429Z,26.23
2022-09-11T10:24:02.243Z,26.23
2022-09-11T10:26:38.936Z,26.22
2022-09-11T10:29:14.475Z,26.21
2022-09-11T10:31:52.971Z,26.24
2022-09-11T10:34:28.284Z,26.28
2022-09-11T10:37:03.511Z,26.30
2022-09-11T10:39:37.468Z,26.29
2022-09-11T10:42:16.894Z,26.29
2022-09-11T10:44:50.506Z,26.31
2022-09-11T10:47:26.761Z,26.33
2022-09-11T10:50:23.807Z,26.36
2022-09-11T10:53:16.684Z,26.34
2022-09-11T10:55:57.968Z,26.36
2022-09-11T10:58:34.723Z,26.37
2022-09-11T11:01:05.633Z,26.39
2022-09-11T11:03:36.843Z,26.39
2022-09-11T11:06:23.791Z,26.41
2022-09-11T11:09:33.771Z,26.42
2022-09-11T11:12:19.044Z,26.43
2022-09-11T11:15:07.827Z,26.48
2022-09-11T11:17:48.440Z,26.51
2022-09-11T11:20:38.739Z,26.49
2022-09-11T11:23:35.471Z,26.48
2022-09-11T11:26:24.116Z,26.50
2022-09-11T11:29:10.823Z,26.52
2022-09-11T11:31:59.832Z,26.54
2022-09-11T11:35:01.467Z,26.55
2022-09-11T11:37:37.338Z,26.54
2022-09-11T11:40:19.195Z,26.55
2022-09-11T11:42:56.381Z,26.55
2022-09-11T11:45:32.502Z,26.56
2022-09-11T11:48:10.805Z,26.58
2022-09-11T11:50:46.057Z,26.58
2022-09-11T11:53:24.353Z,26.57
2022-09-11T11:56:05.570Z,26.57
2022-09-11T11:58:47.407Z,26.55
2022-09-11T12:01:23.929Z,26.57
2022-09-11T12:04:02.805Z,26.56
2022-09-11T12:06:33.782Z,26.57
2022-09-11T12:09:06.378Z,26.56
2022-09-11T12:11:37.198Z,26.56
2022-09-11T12:14:25.642Z,26.57
2022-09-11T12:16:57.733Z,26.58
2022-09-11T12:19:28.754Z,26.60
2022-09-11T12:22:14.726Z,26.60
2022-09-11T12:24:59.131Z,26.61
2022-09-11T12:28:15.366Z,26.61
2022-09-11T12:31:02.575Z,26.63
2022-09-11T12:33:51.972Z,26.66
2022-09-11T12:36:37.927Z,26.66
2022-09-11T12:39:31.451Z,26.66
2022-09-11T12:42:44.906Z,26.67
2022-09-11T12:45:34.622Z,26.66
2022-09-11T12:48:12.355Z,26.68
2022-09-11T12:50:52.062Z,26.68
2022-09-11T12:53:27.838Z,26.71
2022-09-11T12:56:06.483Z,26.74
2022-09-11T12:58:40.013Z,26.78
2022-09-11T13:01:21.765Z,26.82
2022-09-11T13:04:07.930Z,26.83
2022-09-11T13:06:45.127Z,26.85
2022-09-11T13:09:24.042Z,26.87
2022-09-11T13:11:55.993Z,26.87
2022-09-11T13:14:49.302Z,26.90
2022-09-11T13:17:30.613Z,26.94
2022-09-11T13:20:22.818Z,26.98
2022-09-11T13:22:58.509Z,27.03
2022-09-11T13:25:31.569Z,27.00
2022-09-11T13:28:07.966Z,26.96
2022-09-11T13:30:49.420Z,26.95
2022-09-11T13:33:24.049Z,26.92
2022-09-11T13:35:56.201Z,26.91
2022-09-11T13:38:30.612Z,26.90
2022-09-11T13:41:06.465Z,26.90
2022-09-11T13:43:42.799Z,26.89
2022-09-11T13:46:25.064Z,26.88
2022-09-11T13:49:01.492Z,26.86
2022-09-11T13:51:34.895Z,26.86
2022-09-11T13:54:09.224Z,26.86
2022-09-11T13:57:06.708Z,26.84
2022-09-11T13:59:43.074Z,26.85
2022-09-11T14:02:38.294Z,26.85
2022-09-11T14:05:18.113Z,26.84
2022-09-11T14:08:02.151Z,26.85
2022-09-11T14:10:39.808Z,26.89
2022-09-11T14:13:18.874Z,26.90
2022-09-11T14:15:54.485Z,26.92
2022-09-11T14:18:33.725Z,26.97
2022-09-11T14:21:08.145Z,26.93
2022-09-11T14:23:48.584Z,26.89
2022-09-11T14:26:22.044Z,26.85
2022-09-11T14:29:01.804Z,26.84
2022-09-11T14:31:35.943Z,26.83
2022-09-11T14:34:17.954Z,26.84
2022-09-11T14:36:57.829Z,26.80
2022-09-11T14:39:36.584Z,26.83
2022-09-11T14:42:10.056Z,26.82
2022-09-11T14:44:40.918Z,26.86
2022-09-11T14:47:17.322Z,26.84
2022-09-11T14:49:49.026Z,26.84
2022-09-11T14:52:22.351Z,26.85
2022-09-11T14:54:53.505Z,26.84
2022-09-11T14:57:26.789Z,26.84
2022-09-11T14:59:59.643Z,26.85
2022-09-11T15:02:31.502Z,26.85
2022-09-11T15:05:02.623Z,26.85
2022-09-11T15:07:35.374Z,26.86
2022-09-11T15:10:07.554Z,26.87
2022-09-11T15:12:38.635Z,26.87
2022-09-11T15:15:11.545Z,26.88
2022-09-11T15:17:42.606Z,26.89
2022-09-11T15:20:13.616Z,26.89
2022-09-11T15:22:44.966Z,26.89
2022-09-11T15:25:16.440Z,26.91
2022-09-11T15:27:50.051Z,26.92
2022-09-11T15:30:22.862Z,26.92
2022-09-11T15:32:53.921Z,26.90
2022-09-11T15:35:26.770Z,26.91
2022-09-11T15:37:59.834Z,26.89
2022-09-11T15:40:30.774Z,26.90
2022-09-11T15:43:01.724Z,26.90
2022-09-11T15:45:33.300Z,26.88
2022-09-11T15:48:04.729Z,26.89
2022-09-11T15:50:35.472Z,26.88
2022-09-11T15:53:06.413Z,26.87
2022-09-11T15:55:37.506Z,26.87
2022-09-11T15:58:08.366Z,26.87
2022-09-11T16:00:39.378Z,26.88
2022-09-11T16:03:12.024Z,26.89
2022-09-11T16:05:43.775Z,26.89
2022-09-11T16:08:15.395Z,26.89
2022-09-11T16:10:46.459Z,26.89
2022-09-11T16:13:17.430Z,26.90
2022-09-11T16:15:49.340Z,26.88
2022-09-11T16:18:20.305Z,26.85
2022-09-11T16:21:00.186Z,26.81
2022-09-11T16:23:31.274Z,26.78
2022-09-11T16:26:05.943Z,26.77
2022-09-11T16:28:38.509Z,26.75
2022-09-11T16:31:10.159Z,26.73
2022-09-11T16:33:44.978Z,26.74
2022-09-11T16:36:18.477Z,26.73
2022-09-11T16:38:50.341Z,26.74
2022-09-11T16:41:23.670Z,26.74
2022-09-11T16:43:55.833Z,26.74
2022-09-11T16:46:28.414Z,26.74
2022-09-11T16:49:01.825Z,26.72
2022-09-11T16:51:33.621Z,26.72
2022-09-11T16:54:04.775Z,26.72
2022-09-11T16:56:36.006Z,26.72
2022-09-11T16:59:07.307Z,26.72
2022-09-11T17:01:38.473Z,26.73
2022-09-11T17:04:09.475Z,26.73
2022-09-11T17:06:40.636Z,26.75
2022-09-11T17:09:11.957Z,26.75
2022-09-11T17:11:44.783Z,26.73
2022-09-11T17:14:17.402Z,26.71
2022-09-11T17:16:48.374Z,26.73
2022-09-11T17:19:19.679Z,26.76
2022-09-11T17:21:50.996Z,26.78
2022-09-11T17:24:23.336Z,26.80
2022-09-11T17:26:55.866Z,26.78
2022-09-11T17:29:26.862Z,26.71
2022-09-11T17:32:23.813Z,26.64
2022-09-11T17:34:49.311Z,26.58
2022-09-11T17:37:20.641Z,26.57
2022-09-11T17:39:51.944Z,26.54
2022-09-11T17:42:23.370Z,26.53
2022-09-11T17:44:54.527Z,26.51
2022-09-11T17:47:26.127Z,26.51
2022-09-11T17:49:57.534Z,26.50
2022-09-11T17:52:28.778Z,26.50
2022-09-11T17:54:59.934Z,26.50
2022-09-11T17:57:31.431Z,26.49
2022-09-11T18:00:03.268Z,26.49
2022-09-11T18:02:34.514Z,26.47
2022-09-11T18:05:05.698Z,26.48
2022-09-11T18:07:36.766Z,26.47
2022-09-11T18:10:09.451Z,26.48
2022-09-11T18:12:40.564Z,26.49
2022-09-11T18:15:13.922Z,26.48
2022-09-11T18:17:47.812Z,26.48
2022-09-11T18:20:21.174Z,26.47
2022-09-11T18:22:52.210Z,26.48
2022-09-11T18:25:25.296Z,26.48
2022-09-11T18:27:56.309Z,26.48
2022-09-11T18:30:29.843Z,26.47
2022-09-11T18:33:00.959Z,26.47
2022-09-11T18:35:32.001Z,26.46
2022-09-11T18:38:03.047Z,26.47
2022-09-11T18:40:34.103Z,26.48
2022-09-11T18:43:08.987Z,26.49
2022-09-11T18:45:41.628Z,26.47
2022-09-11T18:48:13.037Z,26.43
2022-09-11T18:50:43.968Z,26.44
2022-09-11T18:53:16.453Z,26.43
2022-09-11T18:55:47.243Z,26.44
2022-09-11T18:58:18.263Z,26.44
2022-09-11T19:00:49.362Z,26.43
2022-09-11T19:03:21.448Z,26.43
2022-09-11T19:05:53.427Z,26.42
2022-09-11T19:08:24.322Z,26.41
2022-09-11T19:10:55.304Z,26.41
2022-09-11T19:13:27.934Z,26.41
2022-09-11T19:16:00.488Z,26.41
2022-09-11T19:18:31.500Z,26.42
2022-09-11T19:21:04.140Z,26.41
2022-09-11T19:23:37.500Z,26.40
2022-09-11T19:26:12.210Z,26.40
2022-09-11T19:28:44.907Z,26.39
2022-09-11T19:31:18.333Z,26.38
2022-09-11T19:33:48.101Z,26.38
2022-09-11T19:36:21.915Z,26.36
2022-09-11T19:38:56.051Z,26.37
2022-09-11T19:41:30.025Z,26.37
2022-09-11T19:44:03.344Z,26.36
2022-09-11T19:46:36.390Z,26.36
2022-09-11T19:49:08.435Z,26.37
2022-09-11T19:51:40.983Z,26.38
2022-09-11T19:54:14.482Z,26.37
2022-09-11T19:56:45.708Z,26.35
2022-09-11T19:59:17.229Z,26.35
2022-09-11T20:01:48.248Z,26.35
2022-09-11T20:04:19.413Z,26.35
2022-09-11T20:09:30.877Z,26.35
2022-09-11T20:12:03.204Z,26.34
2022-09-11T20:14:34.505Z,26.34
2022-09-11T20:17:08.387Z,26.33
2022-09-11T20:19:40.901Z,26.32
2022-09-11T20:22:11.671Z,26.29
2022-09-11T20:24:42.511Z,26.30
2022-09-11T20:27:13.249Z,26.32
2022-09-11T20:29:44.702Z,26.31
2022-09-11T20:32:17.300Z,26.17
2022-09-11T20:34:48.314Z,26.03
2022-09-11T20:37:19.296Z,25.92
2022-09-11T20:39:50.367Z,25.84
2022-09-11T20:42:21.421Z,25.76
2022-09-11T20:44:52.431Z,25.69
2022-09-11T20:47:23.468Z,25.64
2022-09-11T20:49:54.230Z,25.60
2022-09-11T20:52:25.031Z,25.57
2022-09-11T20:54:55.678Z,25.53
2022-09-11T20:57:26.686Z,25.49
2022-09-11T20:59:57.447Z,25.41
2022-09-11T21:02:28.993Z,25.32
2022-09-11T21:05:00.634Z,25.21
2022-09-11T21:07:31.819Z,25.16
2022-09-11T21:10:02.715Z,25.13
2022-09-11T21:12:33.902Z,25.08
2022-09-11T21:15:06.775Z,25.01
2022-09-11T21:17:37.529Z,24.98
2022-09-11T21:20:10.886Z,24.94
2022-09-11T21:22:41.718Z,24.89
2022-09-11T21:25:12.915Z,24.86
2022-09-11T21:27:43.753Z,24.81
2022-09-11T21:30:15.965Z,24.75
2022-09-11T21:32:46.935Z,24.72
2022-09-11T21:35:18.018Z,24.68
2022-09-11T21:37:48.750Z,24.64
2022-09-11T21:40:19.567Z,24.61
2022-09-11T21:42:50.329Z,24.59
2022-09-11T21:45:21.375Z,24.58
2022-09-11T21:47:52.423Z,24.57
2022-09-11T21:50:23.208Z,24.57
2022-09-11T21:52:54.445Z,24.52
2022-09-11T21:55:25.612Z,24.50
2022-09-11T21:57:56.775Z,24.50
2022-09-11T22:00:28.157Z,24.50
2022-09-11T22:02:59.408Z,24.48
2022-09-11T22:05:30.177Z,24.45
2022-09-11T22:08:01.190Z,24.40
2022-09-11T22:10:32.416Z,24.41
2022-09-11T22:13:03.606Z,24.40
2022-09-11T22:15:34.428Z,24.39
2022-09-11T22:18:05.158Z,24.38
2022-09-11T22:20:35.828Z,24.38
2022-09-11T22:23:07.142Z,24.37
2022-09-11T22:25:37.864Z,24.37
2022-09-11T22:28:08.653Z,24.34
2022-09-11T22:30:43.659Z,24.31
2022-09-11T22:33:14.365Z,24.28
2022-09-11T22:35:49.275Z,24.27
2022-09-11T22:38:20.889Z,24.28
2022-09-11T22:40:56.009Z,24.29
2022-09-11T22:43:26.758Z,24.30
2022-09-11T22:45:58.087Z,24.30
2022-09-11T22:48:29.008Z,24.28
2022-09-11T22:51:00.276Z,24.27
2022-09-11T22:53:31.371Z,24.26
2022-09-11T22:56:02.434Z,24.26
2022-09-11T22:58:33.247Z,24.23
2022-09-11T23:01:05.955Z,24.20
2022-09-11T23:03:36.874Z,24.19
2022-09-11T23:06:25.703Z,24.17
2022-09-11T23:08:56.376Z,24.16
2022-09-11T23:11:26.992Z,24.15
2022-09-11T23:13:58.343Z,24.15
2022-09-11T23:16:30.581Z,24.14
2022-09-11T23:19:02.890Z,24.14
2022-09-11T23:21:35.576Z,24.14
2022-09-11T23:24:07.240Z,24.14
2022-09-11T23:26:37.865Z,24.12
2022-09-11T23:29:08.503Z,24.12
2022-09-11T23:31:39.370Z,24.13
2022-09-11T23:34:12.112Z,24.12
2022-09-11T23:36:42.867Z,24.11
2022-09-11T23:39:13.603Z,24.08
2022-09-11T23:41:44.209Z,24.08
2022-09-11T23:44:15.286Z,24.03
2022-09-11T23:46:45.901Z,24.05
2022-09-11T23:49:16.785Z,24.05
2022-09-11T23:51:48.419Z,24.04
2022-09-11T23:54:19.165Z,24.01
2022-09-11T23:56:50.282Z,23.98
2022-09-11T23:59:21.037Z,23.96
